Metar z połowy godziny Komunikat METAR ze strony awiacja.imgw.pl Metar G30 EPSC METAR EPSC 162230Z 11008KT 9999 FEW026 OVC030 M01/M05 Q1016 =